Burkeville, Texas
Current Conditions -  °F | °C
As of 8:15 PM on Saturday 22 Nov 2014 (Local Time) from KJAS Reporting Station
Light Rain Light Rain  
Wind Chill: 63°   Ceiling: 800
Heat Index: 63°   Visibility: 5mi
Dew Point: 62°   Wind: 8mph
Humidity: 95%   Direction: 120°ESE
Pressure: 29.87"   Gusts: NA
Location:  31°N, 93.67°W
Report Text: KJAS 230215Z AUTO 12007KT 5SM -RA OVC008 17/16 A2987 RMK AO2 P0002 T01720164
Loading
Personal Weather Stations






























Interactive Weather Map New forecast layout! Learn more

10-Day Weather Forecast

Advertisements
Track Severe Weather on mobile